Time;durP1;ratioP1;P1;durP2;ratioP2;P2;SDS_P1;SDS_P2;PMS_P1;PMS_P2;Temp;Humidity;BMP_temperature;BMP_pressure;BME280_temperature;BME280_humidity;BME280_pressure;Samples;Min_cycle;Max_cycle;Signal;HPM_P1;HPM_P2
2023/07/24 00:01:52;;;;;;;4.45;2.22;;;25.00;42.70;;;;;;2508945;54;20961;-67
2023/07/24 00:04:19;;;;;;;5.32;2.53;;;25.00;42.80;;;;;;2293286;56;20956;-67
2023/07/24 00:06:48;;;;;;;5.30;2.70;;;25.00;42.80;;;;;;2293216;55;20956;-67
2023/07/24 00:09:14;;;;;;;4.93;2.50;;;24.90;42.90;;;;;;2527849;54;20900;-67
2023/07/24 00:11:41;;;;;;;4.45;2.50;;;24.90;42.80;;;;;;2292738;55;21465;-67
2023/07/24 00:14:07;;;;;;;4.95;2.50;;;24.80;42.80;;;;;;2292473;55;20908;-67
2023/07/24 00:16:34;;;;;;;5.97;3.10;;;24.80;42.90;;;;;;2274380;55;21000;-71
2023/07/24 00:19:01;;;;;;;5.72;2.90;;;24.70;43.10;;;;;;2282990;55;20944;-71
2023/07/24 00:21:28;;;;;;;5.35;3.05;;;24.70;43.30;;;;;;2292347;55;20920;-67
2023/07/24 00:23:54;;;;;;;4.80;2.53;;;24.60;43.20;;;;;;2273570;55;21609;-68
2023/07/24 00:26:20;;;;;;;4.90;2.65;;;24.60;43.20;;;;;;2528585;54;20996;-67
2023/07/24 00:28:47;;;;;;;4.97;2.70;;;24.50;43.10;;;;;;2528469;54;20913;-68
2023/07/24 00:31:14;;;;;;;5.20;2.67;;;24.40;43.10;;;;;;2292517;55;20992;-67
2023/07/24 00:33:40;;;;;;;5.00;2.62;;;24.40;43.20;;;;;;2527832;54;20920;-67
2023/07/24 00:36:07;;;;;;;4.65;2.33;;;24.30;43.20;;;;;;2292340;55;20925;-67
2023/07/24 00:38:36;;;;;;;5.03;2.28;;;24.30;43.40;;;;;;2526898;54;20932;-67
2023/07/24 00:41:02;;;;;;;4.18;2.15;;;24.20;43.40;;;;;;2291944;55;20904;-68
2023/07/24 00:43:28;;;;;;;4.55;2.55;;;24.10;43.40;;;;;;2291817;55;20933;-71
2023/07/24 00:45:55;;;;;;;4.68;2.65;;;24.10;43.60;;;;;;2292727;55;20988;-67
2023/07/24 00:48:21;;;;;;;5.05;2.70;;;24.00;43.70;;;;;;2293159;55;20980;-67
2023/07/24 00:50:48;;;;;;;3.95;2.25;;;23.90;43.70;;;;;;2527774;54;20936;-66
2023/07/24 00:53:14;;;;;;;4.35;2.30;;;23.90;43.80;;;;;;2528130;54;20965;-70
2023/07/24 00:55:40;;;;;;;4.82;2.35;;;23.80;43.80;;;;;;2292820;55;20948;-69
2023/07/24 00:58:06;;;;;;;4.62;2.58;;;23.80;43.90;;;;;;2528041;54;21500;-67
2023/07/24 01:00:33;;;;;;;4.62;2.30;;;23.80;44.00;;;;;;2292218;55;20972;-69
2023/07/24 01:02:59;;;;;;;4.60;2.40;;;23.70;43.90;;;;;;2527837;54;20925;-65
2023/07/24 01:05:26;;;;;;;5.60;2.42;;;23.60;43.90;;;;;;2528260;54;20924;-69
2023/07/24 01:07:52;;;;;;;4.57;2.53;;;23.60;44.10;;;;;;2528207;54;20959;-68
2023/07/24 01:10:19;;;;;;;4.57;2.50;;;23.50;44.00;;;;;;2523181;54;20990;-67
2023/07/24 01:13:10;;;;;;;5.37;2.83;;;23.50;44.20;;;;;;2504353;54;20931;-67
2023/07/24 01:15:45;;;;;;;5.90;3.05;;;23.40;44.60;;;;;;2292791;55;20940;-67
2023/07/24 01:18:12;;;;;;;4.47;2.33;;;23.40;44.30;;;;;;2527841;54;21205;-67
2023/07/24 01:20:47;;;;;;;4.68;2.72;;;23.30;44.40;;;;;;2293219;55;20956;-72
2023/07/24 01:24:17;;;;;;;6.20;3.15;;;23.20;44.50;;;;;;2291895;55;20940;-67
2023/07/24 01:26:44;;;;;;;5.15;2.67;;;23.20;45.20;;;;;;2527972;54;20956;-67
2023/07/24 01:29:10;;;;;;;5.00;2.55;;;23.20;44.70;;;;;;2292365;55;21743;-70
2023/07/24 01:31:36;;;;;;;5.35;2.60;;;23.10;44.70;;;;;;2293079;55;20948;-66
2023/07/24 01:34:06;;;;;;;6.62;2.62;;;23.10;44.80;;;;;;2528109;54;20901;-67
2023/07/24 01:36:32;;;;;;;5.80;2.70;;;23.00;44.90;;;;;;2521503;54;21042;-67
2023/07/24 01:38:58;;;;;;;4.60;2.50;;;23.00;45.00;;;;;;2276676;55;20924;-66
2023/07/24 01:41:25;;;;;;;4.93;2.60;;;23.00;45.00;;;;;;2528866;54;20964;-68
2023/07/24 01:43:53;;;;;;;5.75;2.95;;;22.90;45.10;;;;;;2528218;54;20936;-67
2023/07/24 01:46:19;;;;;;;5.40;2.97;;;22.90;45.20;;;;;;2274672;55;21416;-68
2023/07/24 01:48:46;;;;;;;5.30;2.65;;;22.90;45.20;;;;;;2289945;55;21495;-69
2023/07/24 01:51:12;;;;;;;5.85;2.60;;;22.90;45.30;;;;;;2528278;54;20944;-68
2023/07/24 01:53:40;;;;;;;5.57;2.58;;;22.90;45.40;;;;;;2292214;55;20949;-67
2023/07/24 01:56:07;;;;;;;5.10;2.72;;;22.80;45.50;;;;;;2528042;54;20921;-66
2023/07/24 01:58:33;;;;;;;4.55;2.33;;;22.80;45.50;;;;;;2293129;55;20984;-67
2023/07/24 02:00:59;;;;;;;4.72;2.60;;;22.80;45.60;;;;;;2293124;55;20925;-69
2023/07/24 02:03:25;;;;;;;4.53;2.30;;;22.70;45.60;;;;;;2528050;54;21413;-70
2023/07/24 02:05:52;;;;;;;5.87;2.90;;;22.70;45.60;;;;;;2524704;54;20985;-67
2023/07/24 02:08:18;;;;;;;4.40;2.35;;;22.70;45.70;;;;;;2504985;54;20976;-68
2023/07/24 02:10:48;;;;;;;5.20;2.65;;;22.70;45.70;;;;;;2292739;55;20916;-67
2023/07/24 02:13:15;;;;;;;5.35;2.50;;;22.60;45.90;;;;;;2528072;54;20984;-67
2023/07/24 02:15:41;;;;;;;5.37;2.87;;;22.50;45.80;;;;;;2526750;54;20948;-67
2023/07/24 02:18:07;;;;;;;5.75;2.95;;;22.60;46.00;;;;;;2292940;56;20900;-71
2023/07/24 02:20:34;;;;;;;4.50;2.40;;;22.50;46.10;;;;;;2528219;54;20980;-66
2023/07/24 02:23:00;;;;;;;5.65;2.30;;;22.50;46.10;;;;;;2293100;55;21039;-67
2023/07/24 02:25:27;;;;;;;5.35;2.70;;;22.50;46.20;;;;;;2527571;54;20984;-68
2023/07/24 02:27:53;;;;;;;6.25;2.85;;;22.40;46.30;;;;;;2518395;54;21065;-67
2023/07/24 02:30:20;;;;;;;4.62;2.50;;;22.40;46.30;;;;;;2269467;55;20962;-67
2023/07/24 02:32:47;;;;;;;5.00;2.40;;;22.40;46.50;;;;;;2518100;54;20920;-70
2023/07/24 02:35:13;;;;;;;5.22;2.50;;;22.40;46.60;;;;;;2527176;54;20912;-66
2023/07/24 02:37:40;;;;;;;4.93;2.60;;;22.40;46.70;;;;;;2292629;55;21444;-67
2023/07/24 02:40:08;;;;;;;5.00;2.47;;;22.40;46.80;;;;;;2292876;55;20912;-68
2023/07/24 02:42:34;;;;;;;5.10;2.92;;;22.40;46.90;;;;;;2293670;55;21409;-67
2023/07/24 02:45:00;;;;;;;5.10;2.87;;;22.40;47.00;;;;;;2293353;55;20924;-70
2023/07/24 02:47:27;;;;;;;5.47;2.72;;;22.30;47.60;;;;;;2501028;54;21621;-67
2023/07/24 02:49:56;;;;;;;5.50;2.95;;;22.30;47.10;;;;;;2527735;54;20952;-70
2023/07/24 02:52:23;;;;;;;5.22;2.60;;;22.30;47.50;;;;;;2528302;54;20983;-69
2023/07/24 02:54:49;;;;;;;6.95;3.20;;;22.30;47.40;;;;;;2528601;54;21012;-67
2023/07/24 02:57:15;;;;;;;5.57;2.67;;;22.30;47.40;;;;;;2292514;56;20928;-71
2023/07/24 02:59:42;;;;;;;5.25;2.70;;;22.30;47.50;;;;;;2293515;55;20933;-70
2023/07/24 03:02:09;;;;;;;5.53;2.90;;;22.30;47.60;;;;;;2527860;54;20904;-66
2023/07/24 03:04:36;;;;;;;6.85;3.20;;;22.30;47.70;;;;;;2293311;55;20903;-68
2023/07/24 03:07:02;;;;;;;5.35;2.90;;;22.30;47.70;;;;;;2528838;54;20952;-68
2023/07/24 03:09:29;;;;;;;6.32;3.05;;;22.40;47.80;;;;;;2527588;54;21075;-67
2023/07/24 03:11:55;;;;;;;5.97;3.20;;;22.40;47.90;;;;;;2292601;56;20916;-67
2023/07/24 03:14:21;;;;;;;5.32;2.72;;;22.40;47.90;;;;;;2528206;54;20921;-67
2023/07/24 03:16:48;;;;;;;5.60;3.28;;;22.40;48.00;;;;;;2293176;55;20932;-67
2023/07/24 03:19:17;;;;;;;5.80;3.17;;;22.40;47.90;;;;;;2292832;56;20952;-67
2023/07/24 03:21:43;;;;;;;5.87;3.15;;;22.40;48.00;;;;;;2527348;54;21301;-69
2023/07/24 03:24:10;;;;;;;6.62;3.40;;;22.40;48.00;;;;;;2528071;54;20960;-68
2023/07/24 03:26:37;;;;;;;5.43;3.10;;;22.50;48.10;;;;;;2293017;55;20988;-67
2023/07/24 03:29:05;;;;;;;6.53;3.17;;;22.50;48.20;;;;;;2286468;55;20945;-71
2023/07/24 03:31:31;;;;;;;6.12;3.33;;;22.50;48.30;;;;;;2280042;55;20904;-70
2023/07/24 03:33:57;;;;;;;4.90;2.60;;;22.50;48.30;;;;;;2528369;54;21413;-68
2023/07/24 03:36:25;;;;;;;4.65;2.42;;;22.50;48.20;;;;;;2293489;55;20976;-71
2023/07/24 03:38:51;;;;;;;4.95;2.62;;;22.50;48.20;;;;;;2293352;55;20948;-67
2023/07/24 03:41:18;;;;;;;4.80;2.50;;;22.50;48.10;;;;;;2528100;54;20960;-67
2023/07/24 03:43:44;;;;;;;5.57;2.72;;;22.50;48.10;;;;;;2527892;54;21829;-67
2023/07/24 03:46:10;;;;;;;5.28;2.50;;;22.50;48.10;;;;;;2528450;54;21032;-71
2023/07/24 03:48:38;;;;;;;5.12;2.40;;;22.60;48.20;;;;;;2510251;54;20978;-67
2023/07/24 03:51:04;;;;;;;4.97;2.45;;;22.50;48.20;;;;;;2506972;54;20912;-67
2023/07/24 03:53:30;;;;;;;5.43;2.70;;;22.60;48.30;;;;;;2282099;55;21849;-67
2023/07/24 03:55:56;;;;;;;4.95;2.47;;;22.60;48.30;;;;;;2518561;54;20920;-66
2023/07/24 03:58:23;;;;;;;5.25;2.53;;;22.60;48.30;;;;;;2292834;55;20924;-67
2023/07/24 04:00:49;;;;;;;4.95;2.62;;;22.60;48.30;;;;;;2293073;55;20922;-67
2023/07/24 04:03:17;;;;;;;5.53;2.90;;;22.60;48.40;;;;;;2270684;55;1353753;-68
2023/07/24 04:05:46;;;;;;;4.47;2.42;;;22.60;48.40;;;;;;2527886;54;21453;-68
2023/07/24 04:08:15;;;;;;;5.05;2.58;;;22.60;48.50;;;;;;2528494;54;20960;-71
2023/07/24 04:10:41;;;;;;;5.28;2.97;;;22.60;48.50;;;;;;2283268;55;20962;-67
2023/07/24 04:13:08;;;;;;;5.40;2.78;;;22.60;48.50;;;;;;2521094;54;20996;-68
2023/07/24 04:15:35;;;;;;;4.75;2.47;;;22.60;48.60;;;;;;2281909;55;21032;-67
2023/07/24 04:18:01;;;;;;;5.55;2.80;;;22.60;48.70;;;;;;2285492;55;21015;-67
2023/07/24 04:20:28;;;;;;;4.90;2.78;;;22.60;48.70;;;;;;2292548;55;20951;-67
2023/07/24 04:22:54;;;;;;;5.97;3.17;;;22.60;48.80;;;;;;2293423;55;20925;-67
2023/07/24 04:25:20;;;;;;;6.60;3.60;;;22.60;49.00;;;;;;2295819;55;20909;-67
2023/07/24 04:27:48;;;;;;;7.60;3.67;;;22.60;49.20;;;;;;2502107;54;21047;-67
2023/07/24 04:30:16;;;;;;;7.07;3.87;;;22.60;49.30;;;;;;2517095;54;21037;-65
2023/07/24 04:32:42;;;;;;;7.32;3.92;;;22.60;49.20;;;;;;2514559;54;20980;-70
2023/07/24 04:35:09;;;;;;;7.43;4.05;;;22.70;49.40;;;;;;2293198;56;20908;-68
2023/07/24 04:37:36;;;;;;;6.62;3.85;;;22.70;49.50;;;;;;2292518;55;21108;-66
2023/07/24 04:40:03;;;;;;;5.60;2.85;;;22.70;49.50;;;;;;2293343;55;20992;-68
2023/07/24 04:42:30;;;;;;;5.80;3.08;;;22.70;49.50;;;;;;2292595;55;21528;-68
2023/07/24 04:44:56;;;;;;;5.07;2.80;;;22.70;49.50;;;;;;2527716;54;20941;-70
2023/07/24 04:47:22;;;;;;;5.80;3.20;;;22.70;49.50;;;;;;2292847;55;21768;-68
2023/07/24 04:49:48;;;;;;;5.72;2.65;;;22.70;49.40;;;;;;2528454;54;21715;-66
2023/07/24 04:52:15;;;;;;;5.62;2.87;;;22.70;49.40;;;;;;2292965;55;21000;-68
2023/07/24 04:54:41;;;;;;;5.28;2.58;;;22.70;49.50;;;;;;2292441;56;20920;-71
2023/07/24 04:57:08;;;;;;;4.95;2.58;;;22.70;49.50;;;;;;2528742;54;20960;-70
2023/07/24 04:59:34;;;;;;;4.37;2.55;;;22.70;49.50;;;;;;2292806;55;20967;-69
2023/07/24 05:02:00;;;;;;;4.93;2.37;;;22.70;49.60;;;;;;2528194;54;20936;-72
2023/07/24 05:04:27;;;;;;;5.50;2.75;;;22.80;49.70;;;;;;2292987;55;20992;-67
2023/07/24 05:06:53;;;;;;;5.20;2.80;;;22.80;49.80;;;;;;2292652;55;20912;-68
2023/07/24 05:09:19;;;;;;;5.53;2.90;;;22.80;49.80;;;;;;2293944;55;21346;-68
2023/07/24 05:11:46;;;;;;;5.75;2.97;;;22.80;49.90;;;;;;2292643;55;21071;-68
2023/07/24 05:14:12;;;;;;;6.45;3.00;;;22.80;50.00;;;;;;2527470;54;20893;-70
2023/07/24 05:16:38;;;;;;;6.70;2.92;;;22.80;50.00;;;;;;2527784;54;21429;-70
2023/07/24 05:19:05;;;;;;;5.47;3.20;;;22.90;50.00;;;;;;2528838;54;21089;-69
2023/07/24 05:21:31;;;;;;;5.85;2.70;;;22.90;50.00;;;;;;2528136;54;20954;-71
2023/07/24 05:23:57;;;;;;;5.70;2.90;;;22.90;50.00;;;;;;2290224;55;21462;-68
2023/07/24 05:26:24;;;;;;;5.60;3.10;;;22.90;50.00;;;;;;2270969;55;21013;-69
2023/07/24 05:28:52;;;;;;;5.57;3.08;;;23.00;50.20;;;;;;2516251;54;21755;-70
2023/07/24 05:31:19;;;;;;;5.12;3.03;;;23.00;50.30;;;;;;2528886;54;20939;-67
2023/07/24 05:33:45;;;;;;;5.20;2.83;;;23.00;50.30;;;;;;2292752;55;20951;-71
2023/07/24 05:36:11;;;;;;;9.25;3.62;;;23.00;50.30;;;;;;2293388;55;21016;-70
2023/07/24 05:38:40;;;;;;;6.03;3.10;;;23.00;50.40;;;;;;2510879;54;20993;-68
2023/07/24 05:41:06;;;;;;;6.25;3.37;;;23.10;50.50;;;;;;2517266;54;20952;-69
2023/07/24 05:43:32;;;;;;;6.82;3.60;;;23.10;50.60;;;;;;2502783;54;21420;-68
2023/07/24 05:46:00;;;;;;;6.95;3.35;;;23.10;50.80;;;;;;2292637;55;20912;-69
2023/07/24 05:48:26;;;;;;;5.97;3.42;;;23.20;51.00;;;;;;2292829;55;20892;-70
2023/07/24 05:50:53;;;;;;;7.62;3.53;;;23.20;51.00;;;;;;2528370;54;20921;-71
2023/07/24 05:53:20;;;;;;;6.18;3.30;;;23.30;51.00;;;;;;2528365;54;20909;-68
2023/07/24 05:55:46;;;;;;;6.20;3.83;;;23.40;51.10;;;;;;2292042;55;20948;-69
2023/07/24 05:58:12;;;;;;;6.28;3.50;;;23.40;51.20;;;;;;2282289;55;20950;-70
2023/07/24 06:00:39;;;;;;;6.18;3.58;;;23.50;51.40;;;;;;2284688;55;20924;-69
2023/07/24 06:03:05;;;;;;;7.15;4.22;;;23.50;51.40;;;;;;2290732;55;21043;-69
2023/07/24 06:05:33;;;;;;;8.98;4.07;;;23.60;51.50;;;;;;2526494;54;21319;-68
2023/07/24 06:08:00;;;;;;;7.15;3.70;;;23.70;51.50;;;;;;2527386;54;21373;-68
2023/07/24 06:10:26;;;;;;;6.40;3.53;;;23.80;51.60;;;;;;2528055;54;21810;-68
2023/07/24 06:12:53;;;;;;;6.03;3.33;;;23.90;51.60;;;;;;2292682;56;20940;-69
2023/07/24 06:15:19;;;;;;;6.03;3.58;;;23.90;51.60;;;;;;2528612;54;20920;-69
2023/07/24 06:17:46;;;;;;;6.40;3.65;;;24.00;51.50;;;;;;2292481;56;20916;-68
2023/07/24 06:20:12;;;;;;;6.70;3.90;;;24.10;51.50;;;;;;2527397;54;20964;-67
2023/07/24 06:22:39;;;;;;;5.10;2.72;;;24.20;51.60;;;;;;2292322;56;20999;-66
2023/07/24 06:25:07;;;;;;;6.05;3.53;;;24.20;51.50;;;;;;2289779;55;21017;-72
2023/07/24 06:27:33;;;;;;;6.62;3.53;;;24.30;51.50;;;;;;2277550;55;20916;-70
2023/07/24 06:30:00;;;;;;;7.78;3.22;;;24.40;51.50;;;;;;2294231;55;20970;-68
2023/07/24 06:32:33;;;;;;;5.32;3.20;;;24.40;51.40;;;;;;2508542;54;20939;-70
2023/07/24 06:34:59;;;;;;;6.68;3.65;;;24.50;51.30;;;;;;2527310;54;21008;-69
2023/07/24 06:37:26;;;;;;;7.25;3.22;;;24.50;51.30;;;;;;2293108;56;20940;-72
2023/07/24 06:39:52;;;;;;;5.75;3.28;;;24.60;51.30;;;;;;2292834;55;20936;-67
2023/07/24 06:42:18;;;;;;;5.72;3.30;;;24.60;51.20;;;;;;2273721;55;21016;-72
2023/07/24 06:44:45;;;;;;;6.37;3.40;;;24.70;51.20;;;;;;2525255;54;21813;-68
2023/07/24 06:47:12;;;;;;;6.12;3.08;;;24.70;51.20;;;;;;2527899;54;20987;-68
2023/07/24 06:49:39;;;;;;;5.80;3.17;;;24.80;51.20;;;;;;2291934;55;21693;-70
2023/07/24 06:52:05;;;;;;;5.45;3.30;;;24.80;51.20;;;;;;2528373;54;20904;-70
2023/07/24 06:54:32;;;;;;;5.70;3.45;;;24.90;51.30;;;;;;2527743;54;20913;-69
2023/07/24 06:56:58;;;;;;;6.90;3.55;;;24.90;51.40;;;;;;2292773;56;20880;-70
2023/07/24 06:59:24;;;;;;;7.65;3.58;;;24.90;51.60;;;;;;2528026;54;20953;-70
2023/07/24 07:01:51;;;;;;;7.70;3.45;;;24.90;51.80;;;;;;2291984;56;21782;-71
2023/07/24 07:04:18;;;;;;;5.78;3.03;;;25.00;51.90;;;;;;2528485;54;20936;-70
2023/07/24 07:06:44;;;;;;;6.80;3.12;;;25.00;52.00;;;;;;2291970;55;21713;-71
2023/07/24 07:09:11;;;;;;;6.37;2.80;;;25.00;52.20;;;;;;2528515;54;20927;-70
2023/07/24 07:11:38;;;;;;;5.55;2.35;;;25.00;52.20;;;;;;2527212;54;20976;-73
2023/07/24 07:14:04;;;;;;;4.30;2.33;;;25.00;52.20;;;;;;2292663;56;20999;-70
2023/07/24 07:16:32;;;;;;;4.68;2.70;;;25.00;52.20;;;;;;2291900;55;21007;-70
2023/07/24 07:18:58;;;;;;;3.83;2.10;;;25.00;52.40;;;;;;2292560;55;20916;-69
2023/07/24 07:21:25;;;;;;;5.37;2.37;;;25.00;52.40;;;;;;2527771;54;20972;-69
2023/07/24 07:23:52;;;;;;;4.30;2.28;;;24.90;52.60;;;;;;2292491;56;20952;-69
2023/07/24 07:26:18;;;;;;;10.18;3.15;;;24.90;53.20;;;;;;2293607;55;21431;-69
2023/07/24 07:28:46;;;;;;;4.85;2.78;;;24.90;54.30;;;;;;2292615;55;20924;-69
2023/07/24 07:31:16;;;;;;;5.53;2.60;;;24.80;55.00;;;;;;2292093;56;21267;-68
2023/07/24 07:33:43;;;;;;;5.65;2.92;;;24.80;55.60;;;;;;2526208;54;21582;-69
2023/07/24 07:36:12;;;;;;;4.57;2.53;;;24.80;56.10;;;;;;2292593;56;21004;-69
2023/07/24 07:38:39;;;;;;;6.30;3.20;;;24.70;56.40;;;;;;2292177;55;20956;-69
2023/07/24 07:41:06;;;;;;;6.85;2.80;;;24.70;56.90;;;;;;2527268;54;20986;-69
2023/07/24 07:43:32;;;;;;;5.93;2.80;;;24.70;57.30;;;;;;2521013;54;21058;-69
2023/07/24 07:45:59;;;;;;;5.20;2.97;;;24.60;57.50;;;;;;2507228;54;20988;-69
2023/07/24 07:48:25;;;;;;;5.35;2.70;;;24.60;57.80;;;;;;2528299;54;21476;-68
2023/07/24 07:50:52;;;;;;;4.40;2.50;;;24.60;58.00;;;;;;2292315;55;20959;-69
2023/07/24 07:53:18;;;;;;;5.53;3.00;;;24.60;58.40;;;;;;2292655;56;20921;-69
2023/07/24 07:55:45;;;;;;;5.32;2.53;;;24.50;58.50;;;;;;2292283;55;20900;-70
2023/07/24 07:58:11;;;;;;;4.97;2.50;;;24.50;58.70;;;;;;2292448;56;20992;-70
2023/07/24 08:00:40;;;;;;;4.45;2.50;;;24.50;58.90;;;;;;2291768;55;20964;-68
2023/07/24 08:03:07;;;;;;;5.07;2.72;;;24.50;59.10;;;;;;2527393;54;20914;-69
2023/07/24 08:05:38;;;;;;;6.97;3.30;;;24.50;59.30;;;;;;2500344;54;21094;-69
2023/07/24 08:08:08;;;;;;;6.68;2.97;;;24.50;59.50;;;;;;2292722;56;20908;-68
2023/07/24 08:10:37;;;;;;;5.25;2.67;;;24.50;59.70;;;;;;2295760;55;20972;-68
2023/07/24 08:13:04;;;;;;;4.62;2.83;;;24.40;59.80;;;;;;2292781;55;21338;-69
2023/07/24 08:15:34;;;;;;;6.03;2.90;;;24.50;60.00;;;;;;2291778;56;21433;-70
2023/07/24 08:18:04;;;;;;;5.18;2.80;;;24.50;60.30;;;;;;2292907;55;21008;-68
2023/07/24 08:20:31;;;;;;;4.85;2.62;;;24.60;60.60;;;;;;2528036;54;20949;-69
2023/07/24 08:22:58;;;;;;;8.27;3.62;;;24.60;60.80;;;;;;2293066;55;20956;-68
2023/07/24 08:25:24;;;;;;;5.18;3.20;;;24.60;61.00;;;;;;2292735;56;20912;-69
2023/07/24 08:27:51;;;;;;;5.35;3.12;;;24.60;61.30;;;;;;2292137;55;20924;-69
2023/07/24 08:30:26;;;;;;;5.97;3.20;;;24.60;61.40;;;;;;2293076;56;20963;-68
2023/07/24 08:32:53;;;;;;;5.37;3.28;;;24.60;61.50;;;;;;2527889;54;21072;-69
2023/07/24 08:35:23;;;;;;;4.60;2.87;;;24.70;62.10;;;;;;2528665;54;20968;-69
2023/07/24 08:37:49;;;;;;;5.57;2.87;;;24.70;61.90;;;;;;2526998;54;20941;-69
2023/07/24 08:40:17;;;;;;;4.97;2.95;;;24.80;62.10;;;;;;2526591;54;21240;-68
2023/07/24 08:42:43;;;;;;;6.22;3.22;;;24.80;62.00;;;;;;2272398;55;20920;-68
2023/07/24 08:45:13;;;;;;;5.35;3.03;;;24.90;62.10;;;;;;2527789;54;20981;-70
2023/07/24 08:47:41;;;;;;;5.45;2.97;;;24.90;62.20;;;;;;2292387;55;20908;-69
2023/07/24 08:50:11;;;;;;;5.22;2.85;;;25.00;62.30;;;;;;2527720;54;20904;-70
2023/07/24 08:52:42;;;;;;;5.37;3.08;;;25.00;62.30;;;;;;2292564;55;20920;-69
2023/07/24 08:55:08;;;;;;;4.72;2.78;;;25.00;62.30;;;;;;2293379;55;21370;-69
2023/07/24 08:57:35;;;;;;;4.62;2.65;;;25.10;62.40;;;;;;2293109;55;20908;-68
2023/07/24 09:00:04;;;;;;;4.97;2.92;;;25.10;62.30;;;;;;2293548;55;21053;-69
2023/07/24 09:02:34;;;;;;;5.72;3.10;;;25.10;62.30;;;;;;2528090;54;20953;-68
2023/07/24 09:05:02;;;;;;;5.53;2.80;;;25.20;62.20;;;;;;2528059;54;20924;-71
2023/07/24 09:07:29;;;;;;;4.82;2.80;;;25.20;62.20;;;;;;2528554;54;20980;-68
2023/07/24 09:09:56;;;;;;;4.15;2.28;;;25.20;62.00;;;;;;2292816;55;20892;-69
2023/07/24 09:12:23;;;;;;;5.57;2.83;;;25.20;62.00;;;;;;2293439;55;21023;-67
2023/07/24 09:15:01;;;;;;;6.05;3.12;;;25.20;61.90;;;;;;2292865;55;20977;-68
2023/07/24 09:17:28;;;;;;;5.97;2.92;;;25.30;61.60;;;;;;2528098;54;21481;-72
2023/07/24 09:19:57;;;;;;;4.93;2.62;;;25.30;61.90;;;;;;2527853;54;20904;-71
2023/07/24 09:22:26;;;;;;;4.32;2.67;;;25.20;61.70;;;;;;2293149;56;21004;-68
2023/07/24 09:24:56;;;;;;;4.47;2.60;;;25.20;61.70;;;;;;2523562;54;20924;-69
2023/07/24 09:27:26;;;;;;;5.85;2.70;;;25.20;61.60;;;;;;2274748;55;20920;-71
2023/07/24 09:29:52;;;;;;;5.45;2.97;;;25.20;61.60;;;;;;2292743;55;20992;-71
2023/07/24 09:32:25;;;;;;;4.47;2.58;;;25.20;61.70;;;;;;2292668;55;20980;-70
2023/07/24 09:34:53;;;;;;;4.95;2.50;;;25.10;61.60;;;;;;2506608;54;20945;-69
2023/07/24 09:37:33;;;;;;;4.82;2.75;;;25.10;61.80;;;;;;2519073;54;21050;-70
2023/07/24 09:39:59;;;;;;;6.20;3.05;;;25.00;61.70;;;;;;2293279;55;20916;-72
2023/07/24 09:42:35;;;;;;;4.93;2.65;;;25.00;61.80;;;;;;2293282;56;20960;-69
2023/07/24 09:45:08;;;;;;;5.65;2.83;;;25.00;61.80;;;;;;2293622;55;21034;-72
2023/07/24 09:47:35;;;;;;;5.57;2.97;;;24.90;61.80;;;;;;2292130;55;21421;-69
2023/07/24 09:50:19;;;;;;;6.55;2.78;;;24.80;61.80;;;;;;2520196;54;20966;-72
2023/07/24 09:52:45;;;;;;;4.62;2.60;;;24.80;61.90;;;;;;2277317;55;20932;-68
2023/07/24 09:55:15;;;;;;;4.43;2.58;;;24.70;61.90;;;;;;2292580;56;20917;-69
2023/07/24 09:57:41;;;;;;;5.40;2.65;;;24.60;62.00;;;;;;2528249;54;21421;-74
2023/07/24 10:00:09;;;;;;;5.60;2.92;;;24.60;62.10;;;;;;2292341;55;21390;-70
2023/07/24 10:02:39;;;;;;;5.47;2.53;;;24.50;62.10;;;;;;2291547;56;20911;-67
2023/07/24 10:05:05;;;;;;;5.12;2.37;;;24.40;62.20;;;;;;2292974;55;20986;-68
2023/07/24 10:07:31;;;;;;;5.07;2.60;;;24.40;62.30;;;;;;2292932;55;20984;-66
2023/07/24 10:09:58;;;;;;;4.07;2.15;;;24.30;62.30;;;;;;2292154;56;20948;-68
2023/07/24 10:12:27;;;;;;;4.30;2.17;;;24.30;62.50;;;;;;2293125;56;20933;-67
2023/07/24 10:14:54;;;;;;;4.68;2.35;;;24.20;62.60;;;;;;2527643;54;21798;-68
2023/07/24 10:17:40;;;;;;;5.47;2.33;;;24.10;62.70;;;;;;2293107;55;21000;-69
2023/07/24 10:20:08;;;;;;;5.55;2.35;;;24.10;62.70;;;;;;2528262;54;20912;-68
2023/07/24 10:22:37;;;;;;;4.78;2.50;;;24.10;63.00;;;;;;2501698;54;21421;-66
2023/07/24 10:25:05;;;;;;;4.47;2.60;;;24.00;63.00;;;;;;2527444;54;20997;-67
2023/07/24 10:27:35;;;;;;;3.65;2.00;;;24.00;63.20;;;;;;2293005;55;21055;-69
2023/07/24 10:30:02;;;;;;;4.78;2.28;;;23.90;63.10;;;;;;2292388;55;20915;-67
2023/07/24 10:32:30;;;;;;;4.20;2.22;;;23.90;63.30;;;;;;2292889;55;21059;-68
2023/07/24 10:35:08;;;;;;;6.00;2.50;;;23.80;63.30;;;;;;2527389;54;21004;-69
2023/07/24 10:37:35;;;;;;;5.07;2.60;;;23.80;63.40;;;;;;2527894;54;21015;-66
2023/07/24 10:40:04;;;;;;;3.67;2.12;;;23.70;63.50;;;;;;2523337;54;20962;-67
2023/07/24 10:42:33;;;;;;;4.45;2.10;;;23.60;63.50;;;;;;2274669;55;20919;-67
2023/07/24 10:45:08;;;;;;;3.67;1.80;;;23.60;63.70;;;;;;2286158;55;20989;-68
2023/07/24 10:47:35;;;;;;;3.72;1.98;;;23.60;63.80;;;;;;2514452;54;20992;-67
2023/07/24 10:50:04;;;;;;;4.90;2.45;;;23.50;63.90;;;;;;2291801;56;21250;-67
2023/07/24 10:52:31;;;;;;;7.28;2.75;;;23.50;64.20;;;;;;2527443;54;21381;-66
2023/07/24 10:55:01;;;;;;;4.28;2.47;;;23.40;64.40;;;;;;2526382;54;20908;-67
2023/07/24 10:57:27;;;;;;;4.97;2.80;;;23.50;64.90;;;;;;2292299;55;20920;-67
2023/07/24 10:59:54;;;;;;;5.62;3.00;;;23.40;65.00;;;;;;2527293;54;20987;-69
2023/07/24 11:02:21;;;;;;;4.80;2.55;;;23.40;65.20;;;;;;2289792;55;21838;-66
2023/07/24 11:04:48;;;;;;;3.78;2.20;;;23.40;65.40;;;;;;2513196;54;20953;-69
2023/07/24 11:07:14;;;;;;;4.45;2.33;;;23.40;65.50;;;;;;2282968;55;21756;-67
2023/07/24 11:09:41;;;;;;;5.32;2.75;;;23.40;65.80;;;;;;2291607;55;20945;-67
2023/07/24 11:12:15;;;;;;;3.95;2.40;;;23.50;66.20;;;;;;2527352;54;20981;-69
2023/07/24 11:14:50;;;;;;;5.65;3.10;;;23.50;66.60;;;;;;2527448;54;20925;-67
2023/07/24 11:17:17;;;;;;;5.15;2.42;;;23.60;67.00;;;;;;2293908;55;20951;-69
2023/07/24 11:19:43;;;;;;;5.90;3.33;;;23.60;67.10;;;;;;2526323;54;20917;-67
2023/07/24 11:22:10;;;;;;;5.78;3.00;;;23.60;67.40;;;;;;2292552;56;20924;-69
2023/07/24 11:24:45;;;;;;;5.82;2.87;;;23.70;67.60;;;;;;2275283;55;20997;-67
2023/07/24 11:27:15;;;;;;;5.57;3.08;;;23.80;67.70;;;;;;2295310;55;20912;-69
2023/07/24 11:29:47;;;;;;;5.25;3.00;;;23.90;67.70;;;;;;2272674;55;20893;-70
2023/07/24 11:32:16;;;;;;;6.10;3.00;;;23.90;67.50;;;;;;2293213;55;21434;-68
2023/07/24 11:34:43;;;;;;;4.60;2.65;;;24.00;67.50;;;;;;2291999;56;21441;-69
2023/07/24 11:37:09;;;;;;;4.78;2.78;;;24.00;67.40;;;;;;2293362;55;20941;-66
2023/07/24 11:39:36;;;;;;;4.72;2.47;;;24.10;67.30;;;;;;2292930;55;21390;-70
2023/07/24 11:42:02;;;;;;;4.95;2.53;;;24.10;67.20;;;;;;2504418;54;20916;-69
2023/07/24 11:44:28;;;;;;;4.82;2.65;;;24.20;67.20;;;;;;2282236;55;20973;-72
2023/07/24 11:47:02;;;;;;;3.97;2.25;;;24.20;67.10;;;;;;2278125;55;20920;-69
2023/07/24 11:49:32;;;;;;;4.30;2.30;;;24.20;67.00;;;;;;2527224;54;20948;-69
2023/07/24 11:52:03;;;;;;;3.87;2.15;;;24.30;67.00;;;;;;2525373;54;20988;-72
2023/07/24 11:54:29;;;;;;;4.68;2.80;;;24.30;66.80;;;;;;2505182;54;21035;-70
2023/07/24 11:56:56;;;;;;;4.60;2.55;;;24.30;66.80;;;;;;2526490;54;21059;-69
2023/07/24 11:59:24;;;;;;;5.10;2.50;;;24.30;66.80;;;;;;2513843;54;20961;-70
2023/07/24 12:01:51;;;;;;;4.47;2.45;;;24.40;66.80;;;;;;2515558;54;21020;-69
2023/07/24 12:04:18;;;;;;;4.25;2.40;;;24.40;66.60;;;;;;2292151;55;21469;-68
2023/07/24 12:06:49;;;;;;;4.57;2.50;;;24.40;66.60;;;;;;2527004;54;21341;-69
2023/07/24 12:09:18;;;;;;;4.55;2.72;;;24.40;66.60;;;;;;2292839;55;20948;-70
2023/07/24 12:11:46;;;;;;;4.65;2.70;;;24.40;66.60;;;;;;2292743;55;20929;-69
2023/07/24 12:14:15;;;;;;;4.20;2.37;;;24.40;66.70;;;;;;2502083;54;21057;-69
2023/07/24 12:16:44;;;;;;;4.93;2.70;;;24.40;66.80;;;;;;2291966;55;20976;-71
2023/07/24 12:19:10;;;;;;;4.62;2.55;;;24.50;66.90;;;;;;2527646;54;20952;-70
2023/07/24 12:21:36;;;;;;;4.78;2.70;;;24.50;67.00;;;;;;2292078;55;21519;-68
2023/07/24 12:24:03;;;;;;;4.45;2.42;;;24.50;67.00;;;;;;2292822;55;20880;-69
2023/07/24 12:26:31;;;;;;;4.30;2.35;;;24.50;67.10;;;;;;2528754;54;20921;-69
2023/07/24 12:29:00;;;;;;;4.43;2.40;;;24.60;67.30;;;;;;2526711;54;20948;-69
2023/07/24 12:31:26;;;;;;;3.92;2.28;;;24.60;67.50;;;;;;2292251;55;21405;-71
2023/07/24 12:33:53;;;;;;;4.18;2.37;;;24.60;67.70;;;;;;2527584;54;20920;-71
2023/07/24 12:36:19;;;;;;;4.40;2.22;;;24.70;67.70;;;;;;2292776;55;20899;-69
2023/07/24 12:38:47;;;;;;;4.55;2.42;;;24.70;67.70;;;;;;2292559;55;20908;-70
2023/07/24 12:41:14;;;;;;;4.20;2.30;;;24.80;67.70;;;;;;2292693;55;20937;-70
2023/07/24 12:43:40;;;;;;;4.60;2.42;;;24.80;67.70;;;;;;2527533;54;20920;-69
2023/07/24 12:46:06;;;;;;;4.15;2.20;;;24.90;67.50;;;;;;2527806;54;20936;-70
2023/07/24 12:48:33;;;;;;;4.78;2.65;;;24.90;67.30;;;;;;2528339;54;21011;-70